createdAt,value
2023-05-19T00:02:06.126Z,10.00
2023-05-19T00:04:40.379Z,8.73
2023-05-19T00:07:12.912Z,8.07
2023-05-19T00:09:45.261Z,8.30
2023-05-19T00:12:18.299Z,8.10
2023-05-19T00:14:50.681Z,12.00
2023-05-19T00:17:23.107Z,10.70
2023-05-19T00:19:54.971Z,11.30
2023-05-19T00:22:26.082Z,11.53
2023-05-19T00:24:57.125Z,8.70
2023-05-19T00:27:28.321Z,8.10
2023-05-19T00:29:59.654Z,7.43
2023-05-19T00:32:30.781Z,8.70
2023-05-19T00:35:02.475Z,9.03
2023-05-19T00:37:33.595Z,9.00
2023-05-19T00:40:06.363Z,8.90
2023-05-19T00:42:37.791Z,7.33
2023-05-19T00:45:10.860Z,9.67
2023-05-19T00:47:42.009Z,9.13
2023-05-19T00:50:13.986Z,9.47
2023-05-19T00:52:45.026Z,8.93
2023-05-19T00:55:16.413Z,9.07
2023-05-19T00:57:48.227Z,8.73
2023-05-19T01:00:20.647Z,8.33
2023-05-19T01:02:52.555Z,8.93
2023-05-19T01:05:23.855Z,9.27
2023-05-19T01:07:56.675Z,8.87
2023-05-19T01:10:27.683Z,8.83
2023-05-19T01:12:58.778Z,8.50
2023-05-19T01:15:30.418Z,10.70
2023-05-19T01:18:06.127Z,8.13
2023-05-19T01:20:58.063Z,8.70
2023-05-19T01:23:38.220Z,8.83
2023-05-19T01:26:33.351Z,8.90
2023-05-19T01:29:33.144Z,7.07
2023-05-19T01:32:06.612Z,8.17
2023-05-19T01:34:40.508Z,10.10
2023-05-19T01:37:13.099Z,9.00
2023-05-19T01:39:45.861Z,10.60
2023-05-19T01:42:17.666Z,10.93
2023-05-19T01:44:50.089Z,11.50
2023-05-19T01:47:21.388Z,11.43
2023-05-19T01:49:52.378Z,11.93
2023-05-19T01:52:23.416Z,9.70
2023-05-19T01:54:54.423Z,10.10
2023-05-19T01:57:28.350Z,9.77
2023-05-19T02:00:21.354Z,9.00
2023-05-19T02:02:58.033Z,9.30
2023-05-19T02:05:34.230Z,8.73
2023-05-19T02:08:09.342Z,8.73
2023-05-19T02:10:43.850Z,8.77
2023-05-19T02:13:17.670Z,10.83
2023-05-19T02:15:50.019Z,8.90
2023-05-19T02:18:21.739Z,9.07
2023-05-19T02:20:52.784Z,8.63
2023-05-19T02:23:23.779Z,8.37
2023-05-19T02:25:54.881Z,9.10
2023-05-19T02:28:28.071Z,9.60
2023-05-19T02:30:59.148Z,10.33
2023-05-19T02:33:30.531Z,10.20
2023-05-19T02:36:01.478Z,9.97
2023-05-19T02:38:32.788Z,12.07
2023-05-19T02:41:03.836Z,11.10
2023-05-19T02:43:34.882Z,11.70
2023-05-19T02:46:05.827Z,11.13
2023-05-19T02:48:36.926Z,10.57
2023-05-19T02:51:08.349Z,9.83
2023-05-19T02:53:39.961Z,10.43
2023-05-19T02:56:11.200Z,10.93
2023-05-19T02:58:43.321Z,10.07
2023-05-19T03:01:14.408Z,10.30
2023-05-19T03:03:45.536Z,10.17
2023-05-19T03:06:18.252Z,10.13
2023-05-19T03:08:49.435Z,12.70
2023-05-19T03:11:20.823Z,11.73
2023-05-19T03:13:51.970Z,12.70
2023-05-19T03:16:23.060Z,12.70
2023-05-19T03:18:56.025Z,13.03
2023-05-19T03:21:27.208Z,11.30
2023-05-19T03:23:58.286Z,10.67
2023-05-19T03:26:29.578Z,12.47
2023-05-19T03:29:01.180Z,12.47
2023-05-19T03:31:32.252Z,11.63
2023-05-19T03:34:03.699Z,9.37
2023-05-19T03:36:36.240Z,10.70
2023-05-19T03:39:07.252Z,9.70
2023-05-19T03:41:38.733Z,11.30
2023-05-19T03:44:09.800Z,11.20
2023-05-19T03:46:40.936Z,9.80
2023-05-19T03:49:11.997Z,9.10
2023-05-19T03:51:43.232Z,10.87
2023-05-19T03:54:14.519Z,10.77
2023-05-19T03:56:45.715Z,10.63
2023-05-19T03:59:17.261Z,11.10
2023-05-19T04:01:49.022Z,10.83
2023-05-19T04:04:20.029Z,11.93
2023-05-19T04:06:51.209Z,11.27
2023-05-19T04:09:23.750Z,10.70
2023-05-19T04:11:54.788Z,10.70
2023-05-19T04:14:25.815Z,10.87
2023-05-19T04:16:56.804Z,9.97
2023-05-19T04:19:28.030Z,9.03
2023-05-19T04:21:59.303Z,10.40
2023-05-19T04:24:30.263Z,11.17
2023-05-19T04:27:02.864Z,12.40
2023-05-19T04:29:35.725Z,12.07
2023-05-19T04:32:08.074Z,11.83
2023-05-19T04:34:40.448Z,12.93
2023-05-19T04:37:11.509Z,13.80
2023-05-19T04:39:43.638Z,13.53
2023-05-19T04:42:14.607Z,11.80
2023-05-19T04:44:45.471Z,10.97
2023-05-19T04:47:16.983Z,11.33
2023-05-19T04:49:48.093Z,9.53
2023-05-19T04:52:20.723Z,10.33
2023-05-19T04:54:51.834Z,11.27
2023-05-19T04:57:22.989Z,9.53
2023-05-19T04:59:56.178Z,10.30
2023-05-19T05:02:28.325Z,9.80
2023-05-19T05:04:59.603Z,10.63
2023-05-19T05:07:32.330Z,12.57
2023-05-19T05:10:04.052Z,11.37
2023-05-19T05:12:37.375Z,11.27
2023-05-19T05:15:11.274Z,11.23
2023-05-19T05:17:44.713Z,10.87
2023-05-19T05:20:18.348Z,10.67
2023-05-19T05:22:51.024Z,10.90
2023-05-19T05:25:24.164Z,11.10
2023-05-19T05:27:55.244Z,11.97
2023-05-19T05:30:26.232Z,11.73
2023-05-19T05:32:57.345Z,11.43
2023-05-19T05:35:28.409Z,11.93
2023-05-19T05:37:59.520Z,10.60
2023-05-19T05:40:30.621Z,10.93
2023-05-19T05:43:01.495Z,10.67
2023-05-19T05:45:32.656Z,11.00
2023-05-19T05:48:05.463Z,11.40
2023-05-19T05:50:38.353Z,10.90
2023-05-19T05:53:11.051Z,11.23
2023-05-19T05:55:43.882Z,10.67
2023-05-19T05:58:15.981Z,11.10
2023-05-19T06:00:48.053Z,11.10
2023-05-19T06:03:20.755Z,9.63
2023-05-19T06:05:51.793Z,10.30
2023-05-19T06:08:22.815Z,10.03
2023-05-19T06:10:53.751Z,11.17
2023-05-19T06:13:26.202Z,10.53
2023-05-19T06:15:58.046Z,9.33
2023-05-19T06:18:30.138Z,10.33
2023-05-19T06:23:39.218Z,10.73
2023-05-19T06:26:10.128Z,8.87
2023-05-19T06:28:46.168Z,9.50
2023-05-19T06:31:17.781Z,8.87
2023-05-19T06:33:48.956Z,9.27
2023-05-19T06:36:19.983Z,9.10
2023-05-19T06:38:51.072Z,8.80
2023-05-19T06:41:22.625Z,8.70
2023-05-19T06:43:53.669Z,7.30
2023-05-19T06:46:24.992Z,8.65
2023-05-19T06:48:56.142Z,7.20
2023-05-19T06:51:27.240Z,7.83
2023-05-19T06:53:58.193Z,7.37
2023-05-19T06:56:29.179Z,7.17
2023-05-19T06:59:00.195Z,7.57
2023-05-19T07:01:31.517Z,7.33
2023-05-19T07:04:02.781Z,6.70
2023-05-19T07:06:34.297Z,6.90
2023-05-19T07:09:06.071Z,6.80
2023-05-19T07:11:37.872Z,6.20
2023-05-19T07:14:09.283Z,6.30
2023-05-19T07:16:40.475Z,6.70
2023-05-19T07:19:11.804Z,6.10
2023-05-19T07:21:43.644Z,7.10
2023-05-19T07:24:14.858Z,6.83
2023-05-19T07:26:45.102Z,7.17
2023-05-19T07:29:16.106Z,7.27
2023-05-19T07:31:47.450Z,7.70
2023-05-19T07:34:18.528Z,6.93
2023-05-19T07:36:49.945Z,6.33
2023-05-19T07:39:21.591Z,6.47
2023-05-19T07:41:54.281Z,6.03
2023-05-19T07:44:27.268Z,7.00
2023-05-19T07:46:58.555Z,6.60
2023-05-19T07:49:30.093Z,7.30
2023-05-19T07:52:01.375Z,7.75
2023-05-19T07:54:32.410Z,6.80
2023-05-19T07:57:03.280Z,5.73
2023-05-19T07:59:34.371Z,5.63
2023-05-19T08:02:05.848Z,5.57
2023-05-19T08:04:37.114Z,5.03
2023-05-19T08:09:52.454Z,5.30
2023-05-19T08:12:23.483Z,4.67
2023-05-19T08:14:54.501Z,5.33
2023-05-19T08:20:06.399Z,7.42
2023-05-19T08:22:37.254Z,5.83
2023-05-19T08:25:09.775Z,5.30
2023-05-19T08:27:40.915Z,5.57
2023-05-19T08:30:14.340Z,5.00
2023-05-19T08:32:45.269Z,4.77
2023-05-19T08:35:16.099Z,4.73
2023-05-19T08:37:47.863Z,4.47
2023-05-19T08:40:21.502Z,4.80
2023-05-19T08:42:52.541Z,5.23
2023-05-19T08:45:23.284Z,5.00
2023-05-19T08:47:54.190Z,5.20
2023-05-19T08:50:29.286Z,5.00
2023-05-19T08:53:02.976Z,4.20
2023-05-19T08:58:16.567Z,4.63
2023-05-19T09:00:47.916Z,4.10
2023-05-19T09:03:23.889Z,4.20
2023-05-19T09:05:52.572Z,4.57
2023-05-19T09:08:23.552Z,4.40
2023-05-19T09:10:54.239Z,4.47
2023-05-19T09:13:25.204Z,3.93
2023-05-19T09:15:57.577Z,4.00
2023-05-19T09:18:28.936Z,3.97
2023-05-19T09:23:39.900Z,4.03
2023-05-19T09:26:11.857Z,4.30
2023-05-19T09:28:44.698Z,3.53
2023-05-19T09:31:15.878Z,3.63
2023-05-19T09:33:47.661Z,3.43
2023-05-19T09:36:21.862Z,3.47
2023-05-19T09:38:53.182Z,3.20
2023-05-19T09:41:24.285Z,3.23
2023-05-19T09:43:57.804Z,3.00
2023-05-19T09:46:30.153Z,3.33
2023-05-19T09:49:01.650Z,2.87
2023-05-19T09:51:32.959Z,2.77
2023-05-19T09:54:04.916Z,2.90
2023-05-19T09:56:38.029Z,3.07
2023-05-19T09:59:09.590Z,3.10
2023-05-19T10:04:19.957Z,3.27
2023-05-19T10:06:53.859Z,2.67
2023-05-19T10:09:26.490Z,2.67
2023-05-19T10:11:58.752Z,2.97
2023-05-19T10:14:30.710Z,2.70
2023-05-19T10:17:01.629Z,3.20
2023-05-19T10:19:32.819Z,2.80
2023-05-19T10:22:03.654Z,3.13
2023-05-19T10:24:35.197Z,2.83
2023-05-19T10:27:09.074Z,2.93
2023-05-19T10:29:42.858Z,3.23
2023-05-19T10:32:17.577Z,2.50
2023-05-19T10:35:12.708Z,2.57
2023-05-19T10:37:47.715Z,2.80
2023-05-19T10:40:24.716Z,2.50
2023-05-19T10:43:12.134Z,2.80
2023-05-19T10:45:48.295Z,2.83
2023-05-19T10:48:21.619Z,3.20
2023-05-19T10:50:55.734Z,3.00
2023-05-19T10:53:32.841Z,2.90
2023-05-19T10:56:04.828Z,3.07
2023-05-19T10:58:53.170Z,2.50
2023-05-19T11:01:25.294Z,2.83
2023-05-19T11:03:57.974Z,2.80
2023-05-19T11:06:30.702Z,3.13
2023-05-19T11:09:04.840Z,3.00
2023-05-19T11:11:48.118Z,2.90
2023-05-19T11:14:21.861Z,2.97
2023-05-19T11:16:54.575Z,2.53
2023-05-19T11:19:31.388Z,3.23
2023-05-19T11:22:12.608Z,3.40
2023-05-19T11:24:46.365Z,3.67
2023-05-19T11:30:21.188Z,3.70
2023-05-19T11:32:52.473Z,3.47
2023-05-19T11:35:24.595Z,3.20
2023-05-19T11:37:57.675Z,3.07
2023-05-19T11:40:29.392Z,3.10
2023-05-19T11:43:02.160Z,3.77
2023-05-19T11:45:34.591Z,3.60
2023-05-19T11:48:07.098Z,3.33
2023-05-19T11:50:38.608Z,3.20
2023-05-19T11:53:09.488Z,3.33
2023-05-19T11:55:45.861Z,3.70
2023-05-19T11:58:17.504Z,3.23
2023-05-19T12:00:48.354Z,3.20
2023-05-19T12:05:59.282Z,3.40
2023-05-19T12:08:30.689Z,3.17
2023-05-19T12:11:02.349Z,3.97
2023-05-19T12:13:33.036Z,3.37
2023-05-19T12:16:05.123Z,3.50
2023-05-19T12:18:39.478Z,3.23
2023-05-19T12:21:10.221Z,3.47
2023-05-19T12:23:42.573Z,3.20
2023-05-19T12:26:14.246Z,3.23
2023-05-19T12:28:47.305Z,3.67
2023-05-19T12:31:18.448Z,3.10
2023-05-19T12:33:52.183Z,3.50
2023-05-19T12:36:24.938Z,3.20
2023-05-19T12:39:14.468Z,3.37
2023-05-19T12:41:48.118Z,3.47
2023-05-19T12:44:19.412Z,2.97
2023-05-19T12:46:54.494Z,3.40
2023-05-19T12:49:25.488Z,3.60
2023-05-19T12:51:57.106Z,3.03
2023-05-19T12:54:28.687Z,3.60
2023-05-19T12:57:00.974Z,3.40
2023-05-19T12:59:38.766Z,3.30
2023-05-19T13:02:07.900Z,3.30
2023-05-19T13:04:38.902Z,3.20
2023-05-19T13:07:10.263Z,3.23
2023-05-19T13:09:41.142Z,3.57
2023-05-19T13:12:12.115Z,3.43
2023-05-19T13:14:44.074Z,3.33
2023-05-19T13:17:15.156Z,4.00
2023-05-19T13:19:46.152Z,3.73
2023-05-19T13:22:17.917Z,3.80
2023-05-19T13:24:49.165Z,3.83
2023-05-19T13:27:20.510Z,4.70
2023-05-19T13:29:51.424Z,4.10
2023-05-19T13:32:23.451Z,4.60
2023-05-19T13:34:54.330Z,3.90
2023-05-19T13:37:25.609Z,4.43
2023-05-19T13:40:00.654Z,4.20
2023-05-19T13:42:33.354Z,3.63
2023-05-19T13:45:05.130Z,3.90
2023-05-19T13:47:36.189Z,3.70
2023-05-19T13:50:09.175Z,3.90
2023-05-19T13:52:40.285Z,3.47
2023-05-19T13:55:12.143Z,3.70
2023-05-19T13:57:47.991Z,4.03
2023-05-19T14:00:18.389Z,3.60
2023-05-19T14:02:49.376Z,3.40
2023-05-19T14:05:20.632Z,4.10
2023-05-19T14:07:51.963Z,3.90
2023-05-19T14:10:23.576Z,6.10
2023-05-19T14:13:26.037Z,5.47
2023-05-19T14:15:30.205Z,5.03
2023-05-19T14:18:01.209Z,5.00
2023-05-19T14:20:32.646Z,4.43
2023-05-19T14:23:03.827Z,3.77
2023-05-19T14:25:34.721Z,4.27
2023-05-19T14:28:05.851Z,3.90
2023-05-19T14:30:36.895Z,3.97
2023-05-19T14:33:08.157Z,4.30
2023-05-19T14:35:39.020Z,3.87
2023-05-19T14:38:10.016Z,3.73
2023-05-19T14:40:42.600Z,4.00
2023-05-19T14:43:13.772Z,3.93
2023-05-19T14:45:44.677Z,4.00
2023-05-19T14:48:16.293Z,4.07
2023-05-19T14:50:48.358Z,3.83
2023-05-19T14:55:58.594Z,3.83
2023-05-19T14:58:30.052Z,3.50
2023-05-19T15:01:01.359Z,3.40
2023-05-19T15:03:32.557Z,3.87
2023-05-19T15:06:03.809Z,3.87
2023-05-19T15:08:34.904Z,3.70
2023-05-19T15:11:05.927Z,3.60
2023-05-19T15:13:36.872Z,3.70
2023-05-19T15:16:17.757Z,3.30
2023-05-19T15:18:43.245Z,3.83
2023-05-19T15:21:14.767Z,4.00
2023-05-19T15:23:46.247Z,3.87
2023-05-19T15:26:16.997Z,3.57
2023-05-19T15:28:47.889Z,4.47
2023-05-19T15:31:19.188Z,5.20
2023-05-19T15:33:50.082Z,4.50
2023-05-19T15:36:20.822Z,5.27
2023-05-19T15:38:51.477Z,5.47
2023-05-19T15:41:22.789Z,5.23
2023-05-19T15:43:54.491Z,4.13
2023-05-19T15:46:25.530Z,4.40
2023-05-19T15:48:56.815Z,4.80
2023-05-19T15:51:28.268Z,5.27
2023-05-19T15:53:59.501Z,4.93
2023-05-19T15:56:30.882Z,4.93
2023-05-19T15:59:02.091Z,5.17
2023-05-19T16:01:33.098Z,4.93
2023-05-19T16:04:04.411Z,4.80
2023-05-19T16:06:54.122Z,5.27
2023-05-19T16:09:25.316Z,5.80
2023-05-19T16:11:56.413Z,5.77
2023-05-19T16:14:29.546Z,5.63
2023-05-19T16:17:03.434Z,6.07
2023-05-19T16:19:34.133Z,6.23
2023-05-19T16:22:06.196Z,6.63
2023-05-19T16:24:37.486Z,6.90
2023-05-19T16:27:08.718Z,6.13
2023-05-19T16:29:40.066Z,5.93
2023-05-19T16:32:11.134Z,6.90
2023-05-19T16:34:41.829Z,6.97
2023-05-19T16:37:13.134Z,6.60
2023-05-19T16:39:44.876Z,7.17
2023-05-19T16:42:16.356Z,8.20
2023-05-19T16:44:47.581Z,7.77
2023-05-19T16:47:18.423Z,8.43
2023-05-19T16:49:49.211Z,8.10
2023-05-19T16:52:20.221Z,7.67
2023-05-19T16:54:51.208Z,7.53
2023-05-19T16:57:22.440Z,8.03
2023-05-19T16:59:53.618Z,8.10
2023-05-19T17:02:24.824Z,8.13
2023-05-19T17:04:56.655Z,8.07
2023-05-19T17:07:29.297Z,8.00
2023-05-19T17:10:00.047Z,7.87
2023-05-19T17:12:30.915Z,8.13
2023-05-19T17:15:01.686Z,8.97
2023-05-19T17:17:32.454Z,11.38
2023-05-19T17:20:03.586Z,9.87
2023-05-19T17:22:34.475Z,9.47
2023-05-19T17:25:06.152Z,9.40
2023-05-19T17:27:37.784Z,8.53
2023-05-19T17:30:11.237Z,9.43
2023-05-19T17:32:42.296Z,9.07
2023-05-19T17:35:13.221Z,11.15
2023-05-19T17:37:43.832Z,9.10
2023-05-19T17:40:16.553Z,8.50
2023-05-19T17:42:47.366Z,9.15
2023-05-19T17:45:18.810Z,8.17
2023-05-19T17:47:49.991Z,7.63
2023-05-19T17:50:21.533Z,8.00
2023-05-19T17:52:54.715Z,7.60
2023-05-19T17:55:29.536Z,7.47
2023-05-19T17:58:01.896Z,7.53
2023-05-19T18:00:34.486Z,8.20
2023-05-19T18:03:07.509Z,7.17
2023-05-19T18:05:40.300Z,8.07
2023-05-19T18:08:13.200Z,7.30
2023-05-19T18:10:46.300Z,9.15
2023-05-19T18:13:17.256Z,7.27
2023-05-19T18:15:48.013Z,7.33
2023-05-19T18:18:18.785Z,7.30
2023-05-19T18:20:49.816Z,7.23
2023-05-19T18:23:22.395Z,7.33
2023-05-19T18:25:53.936Z,7.20
2023-05-19T18:28:25.001Z,7.30
2023-05-19T18:31:02.461Z,7.30
2023-05-19T18:33:33.772Z,7.40
2023-05-19T18:36:04.882Z,7.93
2023-05-19T18:38:35.759Z,8.20
2023-05-19T18:41:09.487Z,8.10
2023-05-19T18:43:40.472Z,8.33
2023-05-19T18:46:11.511Z,8.33
2023-05-19T18:48:42.418Z,7.87
2023-05-19T18:51:14.764Z,8.90
2023-05-19T18:53:45.615Z,8.10
2023-05-19T18:56:17.815Z,8.20
2023-05-19T18:58:48.618Z,7.80
2023-05-19T19:01:19.671Z,7.73
2023-05-19T19:03:50.705Z,9.33
2023-05-19T19:06:23.221Z,8.13
2023-05-19T19:11:32.253Z,8.03
2023-05-19T19:14:03.396Z,7.33
2023-05-19T19:16:34.892Z,7.57
2023-05-19T19:19:05.992Z,8.03
2023-05-19T19:21:37.692Z,7.20
2023-05-19T19:24:09.707Z,8.07
2023-05-19T19:26:40.770Z,7.70
2023-05-19T19:29:12.346Z,7.63
2023-05-19T19:31:43.516Z,8.27
2023-05-19T19:34:15.921Z,8.20
2023-05-19T19:36:48.018Z,8.43
2023-05-19T19:39:18.961Z,7.83
2023-05-19T19:41:49.827Z,8.07
2023-05-19T19:44:22.291Z,7.50
2023-05-19T19:46:53.214Z,8.33
2023-05-19T19:49:23.998Z,7.43
2023-05-19T19:51:54.803Z,7.93
2023-05-19T19:54:25.684Z,9.13
2023-05-19T19:56:57.034Z,9.50
2023-05-19T19:59:27.940Z,9.60
2023-05-19T20:01:59.102Z,10.20
2023-05-19T20:04:30.225Z,10.33
2023-05-19T20:07:01.110Z,13.48
2023-05-19T20:09:31.914Z,11.27
2023-05-19T20:12:02.964Z,10.20
2023-05-19T20:14:34.114Z,10.37
2023-05-19T20:17:04.937Z,9.50
2023-05-19T20:19:35.972Z,10.83
2023-05-19T20:22:07.255Z,9.77
2023-05-19T20:24:38.157Z,12.03
2023-05-19T20:27:09.770Z,11.23
2023-05-19T20:29:40.801Z,10.53
2023-05-19T20:32:11.719Z,10.03
2023-05-19T20:34:42.616Z,9.60
2023-05-19T20:37:14.020Z,9.73
2023-05-19T20:39:45.079Z,9.60
2023-05-19T20:42:15.898Z,10.10
2023-05-19T20:44:46.730Z,10.77
2023-05-19T20:47:19.473Z,10.27
2023-05-19T20:49:50.808Z,11.47
2023-05-19T20:52:22.021Z,11.90
2023-05-19T20:54:53.277Z,11.50
2023-05-19T20:57:25.019Z,11.10
2023-05-19T20:59:56.850Z,11.10
2023-05-19T21:02:27.570Z,11.70
2023-05-19T21:04:58.415Z,11.10
2023-05-19T21:07:29.141Z,9.33
2023-05-19T21:10:20.401Z,10.20
2023-05-19T21:12:51.647Z,11.73
2023-05-19T21:15:22.648Z,11.27
2023-05-19T21:17:59.313Z,10.37
2023-05-19T21:20:30.037Z,9.90
2023-05-19T21:23:00.819Z,10.60
2023-05-19T21:25:31.967Z,10.73
2023-05-19T21:28:02.615Z,10.53
2023-05-19T21:30:33.430Z,10.07
2023-05-19T21:33:05.664Z,10.80
2023-05-19T21:35:36.970Z,9.60
2023-05-19T21:38:22.154Z,10.90
2023-05-19T21:40:39.932Z,9.13
2023-05-19T21:43:11.215Z,11.33
2023-05-19T21:45:41.961Z,10.63
2023-05-19T21:48:12.750Z,10.80
2023-05-19T21:50:43.596Z,10.60
2023-05-19T21:53:14.280Z,10.83
2023-05-19T21:55:45.577Z,10.40
2023-05-19T21:58:16.261Z,10.23
2023-05-19T22:00:50.966Z,10.10
2023-05-19T22:03:22.160Z,10.40
2023-05-19T22:05:53.843Z,10.17
2023-05-19T22:08:24.740Z,9.90
2023-05-19T22:10:55.806Z,10.77
2023-05-19T22:13:27.054Z,10.40
2023-05-19T22:15:57.833Z,10.13
2023-05-19T22:18:28.553Z,10.43
2023-05-19T22:20:59.197Z,9.80
2023-05-19T22:23:29.925Z,9.70
2023-05-19T22:26:00.989Z,10.63
2023-05-19T22:28:31.746Z,9.00
2023-05-19T22:31:02.408Z,10.90
2023-05-19T22:33:33.457Z,11.20
2023-05-19T22:36:04.114Z,12.90
2023-05-19T22:38:34.754Z,10.00
2023-05-19T22:41:05.677Z,10.70
2023-05-19T22:43:36.364Z,11.13
2023-05-19T22:46:07.498Z,9.57
2023-05-19T22:48:38.123Z,10.63
2023-05-19T22:51:09.074Z,11.17
2023-05-19T22:53:39.738Z,11.27
2023-05-19T22:56:10.781Z,10.87
2023-05-19T22:58:41.415Z,10.57
2023-05-19T23:01:12.105Z,10.43
2023-05-19T23:06:20.986Z,10.73
2023-05-19T23:09:00.586Z,9.93
2023-05-19T23:11:31.623Z,9.10
2023-05-19T23:14:02.687Z,9.47
2023-05-19T23:16:33.786Z,9.67
2023-05-19T23:19:04.842Z,10.80
2023-05-19T23:21:36.199Z,10.10
2023-05-19T23:24:07.854Z,9.67
2023-05-19T23:26:38.506Z,10.90
2023-05-19T23:29:10.722Z,10.93
2023-05-19T23:31:41.718Z,11.00
2023-05-19T23:34:12.454Z,11.10
2023-05-19T23:36:43.115Z,10.50
2023-05-19T23:39:13.869Z,9.30
2023-05-19T23:41:44.513Z,9.17
2023-05-19T23:44:15.162Z,9.33
2023-05-19T23:46:45.861Z,9.97
2023-05-19T23:49:16.591Z,10.13
2023-05-19T23:51:47.304Z,10.63
2023-05-19T23:54:18.393Z,9.20
2023-05-19T23:56:49.387Z,9.37
2023-05-19T23:59:20.031Z,9.97
